Time;durP1;ratioP1;P1;durP2;ratioP2;P2;SDS_P1;SDS_P2;PMS_P1;PMS_P2;Temp;Humidity;BMP_temperature;BMP_pressure;BME280_temperature;BME280_humidity;BME280_pressure;Samples;Min_cycle;Max_cycle;Signal;HPM_P1;HPM_P2
2022/07/23 00:00:31;;;;;;;11.60;5.30;;;;;;;;;;5109327;28;20024;-64
2022/07/23 00:02:57;;;;;;;8.27;4.55;;;;;;;;;;5093862;28;20496;-65
2022/07/23 00:05:22;;;;;;;8.02;4.63;;;;;;;;;;5093401;28;20099;-65
2022/07/23 00:07:48;;;;;;;8.95;4.60;;;;;;;;;;5092496;28;20072;-65
2022/07/23 00:10:13;;;;;;;9.73;4.60;;;;;;;;;;5092710;28;20020;-64
2022/07/23 00:12:39;;;;;;;10.75;4.57;;;;;;;;;;5093102;28;20103;-64
2022/07/23 00:15:06;;;;;;;10.02;4.30;;;;;;;;;;5092892;28;20024;-65
2022/07/23 00:17:32;;;;;;;6.78;4.50;;;;;;;;;;5092999;28;20469;-64
2022/07/23 00:19:57;;;;;;;13.15;4.90;;;;;;;;;;5082198;28;20024;-65
2022/07/23 00:22:23;;;;;;;10.77;4.47;;;;;;;;;;5072681;28;20028;-65
2022/07/23 00:24:49;;;;;;;8.77;4.75;;;;;;;;;;5072470;28;20113;-65
2022/07/23 00:27:14;;;;;;;13.30;5.15;;;;;;;;;;5072487;28;20051;-65
2022/07/23 00:29:42;;;;;;;8.23;4.65;;;;;;;;;;5072674;28;20472;-64
2022/07/23 00:32:07;;;;;;;8.50;4.75;;;;;;;;;;5072504;28;20350;-64
2022/07/23 00:34:33;;;;;;;9.00;4.53;;;;;;;;;;5071043;28;20021;-66
2022/07/23 00:36:59;;;;;;;9.48;4.88;;;;;;;;;;5072469;28;20035;-65
2022/07/23 00:39:24;;;;;;;9.23;4.95;;;;;;;;;;5072424;28;20035;-65
2022/07/23 00:41:50;;;;;;;7.40;4.78;;;;;;;;;;5073529;28;20055;-65
2022/07/23 00:44:27;;;;;;;8.15;4.53;;;;;;;;;;5076566;28;20044;-65
2022/07/23 00:46:55;;;;;;;10.05;4.63;;;;;;;;;;5076768;28;20178;-65
2022/07/23 00:49:22;;;;;;;9.55;4.30;;;;;;;;;;5076168;28;20028;-65
2022/07/23 00:51:49;;;;;;;10.50;4.45;;;;;;;;;;5076310;28;20029;-65
2022/07/23 00:54:16;;;;;;;8.90;4.65;;;;;;;;;;5076314;28;20120;-65
2022/07/23 00:56:43;;;;;;;11.15;4.70;;;;;;;;;;5076396;28;20024;-66
2022/07/23 00:59:09;;;;;;;9.75;4.55;;;;;;;;;;5076311;28;20086;-66
2022/07/23 01:01:35;;;;;;;8.00;4.38;;;;;;;;;;5076196;28;20024;-66
2022/07/23 01:04:00;;;;;;;8.45;4.57;;;;;;;;;;5087795;28;20103;-66
2022/07/23 01:06:26;;;;;;;8.13;4.97;;;;;;;;;;5077263;28;20127;-66
2022/07/23 01:08:54;;;;;;;7.85;4.70;;;;;;;;;;5076166;28;20369;-65
2022/07/23 01:11:20;;;;;;;6.03;4.50;;;;;;;;;;5075917;28;20025;-66
2022/07/23 01:13:47;;;;;;;7.63;4.80;;;;;;;;;;5075964;28;20030;-66
2022/07/23 01:16:12;;;;;;;8.13;5.00;;;;;;;;;;5075816;28;20025;-65
2022/07/23 01:18:38;;;;;;;9.00;5.22;;;;;;;;;;5075589;28;20024;-65
2022/07/23 01:21:04;;;;;;;6.65;4.85;;;;;;;;;;5095450;28;20032;-65
2022/07/23 01:23:29;;;;;;;8.32;4.55;;;;;;;;;;5096100;28;20483;-65
2022/07/23 01:25:55;;;;;;;7.93;4.88;;;;;;;;;;5095911;28;20125;-65
2022/07/23 01:28:21;;;;;;;11.18;4.57;;;;;;;;;;5096413;28;20058;-65
2022/07/23 01:30:48;;;;;;;10.90;5.00;;;;;;;;;;5099042;28;20350;-64
2022/07/23 01:33:14;;;;;;;8.25;4.70;;;;;;;;;;5094660;28;20031;-65
2022/07/23 01:35:39;;;;;;;9.63;5.30;;;;;;;;;;5097346;28;20469;-65
2022/07/23 01:38:05;;;;;;;14.40;6.90;;;;;;;;;;5095376;28;20409;-65
2022/07/23 01:40:31;;;;;;;9.95;5.65;;;;;;;;;;5095107;28;20051;-65
2022/07/23 01:42:56;;;;;;;6.57;4.75;;;;;;;;;;5095185;28;20016;-65
2022/07/23 01:45:22;;;;;;;8.10;4.75;;;;;;;;;;5094831;28;20043;-65
2022/07/23 01:47:48;;;;;;;9.73;4.70;;;;;;;;;;5095330;28;20032;-65
2022/07/23 01:50:13;;;;;;;7.22;4.78;;;;;;;;;;5092633;28;20035;-65
2022/07/23 01:52:39;;;;;;;6.55;4.80;;;;;;;;;;5094990;28;20476;-64
2022/07/23 01:55:05;;;;;;;12.20;5.15;;;;;;;;;;5094195;28;20481;-65
2022/07/23 01:57:31;;;;;;;9.70;4.55;;;;;;;;;;5095113;28;20016;-65
2022/07/23 01:59:57;;;;;;;7.88;4.38;;;;;;;;;;5095170;28;20028;-65
2022/07/23 02:02:22;;;;;;;7.38;4.63;;;;;;;;;;5095333;28;20020;-65
2022/07/23 02:04:48;;;;;;;7.32;4.18;;;;;;;;;;5095150;28;20056;-65
2022/07/23 02:07:13;;;;;;;8.45;4.38;;;;;;;;;;5095137;28;20028;-65
2022/07/23 02:09:39;;;;;;;9.70;4.30;;;;;;;;;;5095235;28;20032;-65
2022/07/23 02:12:05;;;;;;;7.80;4.60;;;;;;;;;;5095015;28;20480;-65
2022/07/23 02:14:31;;;;;;;9.15;4.25;;;;;;;;;;5094880;28;20372;-65
2022/07/23 02:16:56;;;;;;;8.73;4.20;;;;;;;;;;5094991;28;20024;-65
2022/07/23 02:19:22;;;;;;;9.73;4.70;;;;;;;;;;5094801;28;20066;-65
2022/07/23 02:21:47;;;;;;;7.65;4.82;;;;;;;;;;5094956;28;20124;-65
2022/07/23 02:24:14;;;;;;;8.10;4.60;;;;;;;;;;5095071;28;20023;-65
2022/07/23 02:26:39;;;;;;;6.22;3.92;;;;;;;;;;5094547;28;20625;-65
2022/07/23 02:29:05;;;;;;;5.82;3.92;;;;;;;;;;5094516;28;20040;-64
2022/07/23 02:31:31;;;;;;;7.22;4.25;;;;;;;;;;5094773;28;20077;-65
2022/07/23 02:33:57;;;;;;;9.07;4.20;;;;;;;;;;5086196;28;20020;-65
2022/07/23 02:36:23;;;;;;;8.38;4.40;;;;;;;;;;5082418;28;20470;-65
2022/07/23 02:38:48;;;;;;;6.10;3.97;;;;;;;;;;5074412;28;20494;-65
2022/07/23 02:41:14;;;;;;;8.60;4.13;;;;;;;;;;5074222;28;20024;-65
2022/07/23 02:43:39;;;;;;;7.20;4.65;;;;;;;;;;5073971;28;20521;-64
2022/07/23 02:46:05;;;;;;;9.20;4.35;;;;;;;;;;5074123;28;20057;-64
2022/07/23 02:48:31;;;;;;;11.52;4.85;;;;;;;;;;5074178;28;20023;-65
2022/07/23 02:50:56;;;;;;;10.90;4.88;;;;;;;;;;5074182;28;20043;-65
2022/07/23 02:53:23;;;;;;;11.95;4.57;;;;;;;;;;5074117;28;20473;-64
2022/07/23 02:55:49;;;;;;;9.07;3.97;;;;;;;;;;5074021;28;20034;-64
2022/07/23 02:58:14;;;;;;;7.85;4.22;;;;;;;;;;5073743;28;20063;-65
2022/07/23 03:00:40;;;;;;;9.20;4.10;;;;;;;;;;5073917;28;20058;-64
2022/07/23 03:03:07;;;;;;;8.55;4.13;;;;;;;;;;5073895;28;20024;-64
2022/07/23 03:05:33;;;;;;;9.23;4.28;;;;;;;;;;5072710;28;20147;-64
2022/07/23 03:07:58;;;;;;;8.77;4.15;;;;;;;;;;5073904;28;20052;-65
2022/07/23 03:10:24;;;;;;;11.68;4.40;;;;;;;;;;5073766;28;20025;-65
2022/07/23 03:12:49;;;;;;;5.72;3.83;;;;;;;;;;5072198;28;20031;-64
2022/07/23 03:15:15;;;;;;;8.80;3.70;;;;;;;;;;5073647;28;20029;-65
2022/07/23 03:17:41;;;;;;;8.63;4.00;;;;;;;;;;5073634;28;20089;-64
2022/07/23 03:20:07;;;;;;;7.80;4.00;;;;;;;;;;5085049;28;20477;-64
2022/07/23 03:22:33;;;;;;;9.52;4.35;;;;;;;;;;5093820;28;20115;-64
2022/07/23 03:24:58;;;;;;;11.20;4.28;;;;;;;;;;5093548;28;20051;-64
2022/07/23 03:27:26;;;;;;;6.60;3.58;;;;;;;;;;5093381;28;20036;-64
2022/07/23 03:29:53;;;;;;;14.10;4.47;;;;;;;;;;5093515;28;20020;-64
2022/07/23 03:32:19;;;;;;;10.13;4.53;;;;;;;;;;5093805;28;20109;-64
2022/07/23 03:34:44;;;;;;;10.50;5.05;;;;;;;;;;5093862;28;20032;-64
2022/07/23 03:37:10;;;;;;;11.80;5.55;;;;;;;;;;5093476;28;20024;-64
2022/07/23 03:39:36;;;;;;;15.30;5.65;;;;;;;;;;5093438;28;20146;-65
2022/07/23 03:42:01;;;;;;;10.30;5.88;;;;;;;;;;5093246;28;20027;-64
2022/07/23 03:44:27;;;;;;;12.00;5.80;;;;;;;;;;5093354;28;20028;-65
2022/07/23 03:46:52;;;;;;;9.95;5.00;;;;;;;;;;5093235;28;20447;-65
2022/07/23 03:49:18;;;;;;;9.85;5.15;;;;;;;;;;5093315;28;20046;-64
2022/07/23 03:51:43;;;;;;;12.77;5.43;;;;;;;;;;5093228;28;20024;-64
2022/07/23 03:54:09;;;;;;;8.00;4.70;;;;;;;;;;5093185;28;20056;-64
2022/07/23 03:56:35;;;;;;;11.80;4.93;;;;;;;;;;5092924;28;20419;-64
2022/07/23 03:59:01;;;;;;;10.65;4.28;;;;;;;;;;5093262;28;20016;-64
2022/07/23 04:01:26;;;;;;;12.25;4.32;;;;;;;;;;5093237;28;20035;-64
2022/07/23 04:03:52;;;;;;;8.07;3.92;;;;;;;;;;5093123;28;20362;-64
2022/07/23 04:06:18;;;;;;;6.70;3.47;;;;;;;;;;5092967;28;20028;-64
2022/07/23 04:08:43;;;;;;;9.10;3.70;;;;;;;;;;5092945;28;20358;-64
2022/07/23 04:11:09;;;;;;;8.02;3.58;;;;;;;;;;5092812;28;20031;-65
2022/07/23 04:13:34;;;;;;;8.15;4.00;;;;;;;;;;5093000;28;20024;-64
2022/07/23 04:16:00;;;;;;;7.53;3.58;;;;;;;;;;5092749;28;20508;-64
2022/07/23 04:18:25;;;;;;;10.45;3.35;;;;;;;;;;5092777;28;20048;-64
2022/07/23 04:20:51;;;;;;;5.88;3.00;;;;;;;;;;5092564;28;20032;-65
2022/07/23 04:23:17;;;;;;;5.10;3.10;;;;;;;;;;5092817;28;20035;-64
2022/07/23 04:25:43;;;;;;;13.52;3.20;;;;;;;;;;5092263;28;20044;-64
2022/07/23 04:28:10;;;;;;;6.22;3.70;;;;;;;;;;5092676;28;20052;-64
2022/07/23 04:30:35;;;;;;;9.20;2.80;;;;;;;;;;5092556;28;20092;-64
2022/07/23 04:33:01;;;;;;;9.35;3.15;;;;;;;;;;5092772;28;20480;-65
2022/07/23 04:35:26;;;;;;;7.40;3.20;;;;;;;;;;5092757;28;20032;-64
2022/07/23 04:37:52;;;;;;;5.25;2.97;;;;;;;;;;5091486;28;20369;-64
2022/07/23 04:40:18;;;;;;;13.02;3.22;;;;;;;;;;5092470;28;20017;-64
2022/07/23 04:42:43;;;;;;;6.15;2.90;;;;;;;;;;5092750;28;20020;-64
2022/07/23 04:45:09;;;;;;;5.90;2.60;;;;;;;;;;5092574;28;20021;-65
2022/07/23 04:47:35;;;;;;;6.57;2.40;;;;;;;;;;5092738;28;20032;-64
2022/07/23 04:50:00;;;;;;;9.05;2.70;;;;;;;;;;5092507;28;20020;-64
2022/07/23 04:52:26;;;;;;;4.50;2.50;;;;;;;;;;5092520;28;20107;-64
2022/07/23 04:54:52;;;;;;;7.97;2.70;;;;;;;;;;5092465;28;20030;-64
2022/07/23 04:57:17;;;;;;;4.97;2.53;;;;;;;;;;5092581;28;20036;-64
2022/07/23 04:59:42;;;;;;;8.55;3.20;;;;;;;;;;5092348;28;20431;-64
2022/07/23 05:02:08;;;;;;;4.90;2.45;;;;;;;;;;5092529;28;20055;-64
2022/07/23 05:04:34;;;;;;;7.05;2.70;;;;;;;;;;5092584;28;20070;-65
2022/07/23 05:06:59;;;;;;;7.47;2.63;;;;;;;;;;5092509;28;20028;-64
2022/07/23 05:09:25;;;;;;;6.75;2.38;;;;;;;;;;5092256;28;20089;-65
2022/07/23 05:11:51;;;;;;;6.68;2.28;;;;;;;;;;5092414;28;20501;-64
2022/07/23 05:14:16;;;;;;;6.88;1.85;;;;;;;;;;5092312;28;20431;-65
2022/07/23 05:16:42;;;;;;;4.07;2.10;;;;;;;;;;5092294;28;20028;-64
2022/07/23 05:19:08;;;;;;;3.95;1.80;;;;;;;;;;5092163;28;20412;-64
2022/07/23 05:21:33;;;;;;;6.72;1.80;;;;;;;;;;5092432;28;20036;-65
2022/07/23 05:23:59;;;;;;;5.78;1.85;;;;;;;;;;5092023;28;20111;-65
2022/07/23 05:26:25;;;;;;;8.15;2.53;;;;;;;;;;5092212;28;20512;-65
2022/07/23 05:28:50;;;;;;;6.80;2.22;;;;;;;;;;5093303;28;20059;-65
2022/07/23 05:31:16;;;;;;;6.25;2.25;;;;;;;;;;5095867;28;20054;-65
2022/07/23 05:33:42;;;;;;;5.05;2.00;;;;;;;;;;5096010;28;20021;-64
2022/07/23 05:36:08;;;;;;;5.45;2.05;;;;;;;;;;5095881;28;20052;-65
2022/07/23 05:38:34;;;;;;;8.23;1.75;;;;;;;;;;5095607;28;20038;-65
2022/07/23 05:41:00;;;;;;;7.18;2.20;;;;;;;;;;5095676;28;20170;-65
2022/07/23 05:43:26;;;;;;;10.73;2.10;;;;;;;;;;5095686;28;20028;-65
2022/07/23 05:45:52;;;;;;;7.35;1.80;;;;;;;;;;5095470;28;20366;-65
2022/07/23 05:48:18;;;;;;;4.03;1.55;;;;;;;;;;5095723;28;20074;-65
2022/07/23 05:50:43;;;;;;;5.05;1.50;;;;;;;;;;5095503;28;20150;-65
2022/07/23 05:53:09;;;;;;;4.05;1.30;;;;;;;;;;5095395;28;20031;-65
2022/07/23 05:55:34;;;;;;;5.45;1.30;;;;;;;;;;5095564;28;20428;-65
2022/07/23 05:58:00;;;;;;;3.35;1.20;;;;;;;;;;5095548;28;20396;-64
2022/07/23 06:00:27;;;;;;;5.03;1.50;;;;;;;;;;5095362;28;20028;-65
2022/07/23 06:02:52;;;;;;;2.47;1.00;;;;;;;;;;5095360;28;20122;-65
2022/07/23 06:05:18;;;;;;;5.72;1.20;;;;;;;;;;5095312;28;20126;-65
2022/07/23 06:07:44;;;;;;;9.70;1.75;;;;;;;;;;5094990;28;20043;-65
2022/07/23 06:10:10;;;;;;;7.80;1.48;;;;;;;;;;5095066;28;20020;-65
2022/07/23 06:12:36;;;;;;;7.68;1.50;;;;;;;;;;5095180;28;20032;-65
2022/07/23 06:15:02;;;;;;;4.82;1.45;;;;;;;;;;5095243;28;20480;-65
2022/07/23 06:17:28;;;;;;;4.72;1.30;;;;;;;;;;5095105;28;20059;-65
2022/07/23 06:19:54;;;;;;;4.40;1.70;;;;;;;;;;5094753;28;20060;-65
2022/07/23 06:22:20;;;;;;;6.28;1.30;;;;;;;;;;5094889;28;20044;-65
2022/07/23 06:24:46;;;;;;;8.68;2.15;;;;;;;;;;5094691;28;20477;-65
2022/07/23 06:27:12;;;;;;;7.22;1.73;;;;;;;;;;5094945;28;20035;-65
2022/07/23 06:29:38;;;;;;;5.60;1.55;;;;;;;;;;5094823;28;20461;-66
2022/07/23 06:32:04;;;;;;;5.05;2.05;;;;;;;;;;5094755;28;20020;-65
2022/07/23 06:34:29;;;;;;;7.47;1.85;;;;;;;;;;5094812;28;20031;-65
2022/07/23 06:36:55;;;;;;;5.07;1.80;;;;;;;;;;5094641;28;20460;-65
2022/07/23 06:39:20;;;;;;;5.10;1.60;;;;;;;;;;5094350;28;20361;-65
2022/07/23 06:41:46;;;;;;;8.05;1.50;;;;;;;;;;5094580;28;20028;-65
2022/07/23 06:44:11;;;;;;;8.57;1.50;;;;;;;;;;5094686;28;20038;-65
2022/07/23 06:46:37;;;;;;;6.35;1.75;;;;;;;;;;5094295;28;20038;-64
2022/07/23 06:49:04;;;;;;;9.55;1.90;;;;;;;;;;5094488;28;20099;-65
2022/07/23 06:51:30;;;;;;;9.05;2.25;;;;;;;;;;5094077;28;20036;-64
2022/07/23 06:53:55;;;;;;;6.10;2.00;;;;;;;;;;5094335;28;20043;-65
2022/07/23 06:56:21;;;;;;;10.43;2.65;;;;;;;;;;5094400;28;20385;-64
2022/07/23 06:58:47;;;;;;;7.88;2.00;;;;;;;;;;5094313;28;20457;-64
2022/07/23 07:01:12;;;;;;;7.07;2.35;;;;;;;;;;5094166;28;20024;-64
2022/07/23 07:03:38;;;;;;;5.18;1.60;;;;;;;;;;5094234;28;20091;-65
2022/07/23 07:06:03;;;;;;;5.63;2.28;;;;;;;;;;5093909;28;20073;-65
2022/07/23 07:08:29;;;;;;;6.88;2.13;;;;;;;;;;5094168;28;20101;-65
2022/07/23 07:10:54;;;;;;;5.22;2.00;;;;;;;;;;5094113;28;20517;-65
2022/07/23 07:13:20;;;;;;;4.82;1.80;;;;;;;;;;5094092;28;20077;-64
2022/07/23 07:15:45;;;;;;;7.43;1.85;;;;;;;;;;5094057;28;20039;-65
2022/07/23 07:18:11;;;;;;;6.68;2.20;;;;;;;;;;5093790;28;20031;-65
2022/07/23 07:20:37;;;;;;;6.13;2.10;;;;;;;;;;5093524;28;20028;-65
2022/07/23 07:23:02;;;;;;;4.47;1.80;;;;;;;;;;5093939;28;20110;-64
2022/07/23 07:25:28;;;;;;;5.40;1.88;;;;;;;;;;5092195;28;20097;-65
2022/07/23 07:27:53;;;;;;;5.88;1.67;;;;;;;;;;5093707;28;20395;-65
2022/07/23 07:30:19;;;;;;;5.68;1.50;;;;;;;;;;5093811;28;20023;-65
2022/07/23 07:32:44;;;;;;;4.25;1.63;;;;;;;;;;5093683;28;20032;-65
2022/07/23 07:35:10;;;;;;;4.22;1.38;;;;;;;;;;5093383;28;20466;-65
2022/07/23 07:37:36;;;;;;;6.75;1.55;;;;;;;;;;5093632;28;20034;-65
2022/07/23 07:40:01;;;;;;;4.68;1.40;;;;;;;;;;5093437;28;20024;-65
2022/07/23 07:42:27;;;;;;;6.85;1.80;;;;;;;;;;5093419;28;20024;-65
2022/07/23 07:44:52;;;;;;;5.65;1.48;;;;;;;;;;5093387;28;20065;-65
2022/07/23 07:47:18;;;;;;;5.03;1.55;;;;;;;;;;5093280;28;20422;-65
2022/07/23 07:49:44;;;;;;;4.10;1.35;;;;;;;;;;5093298;28;20058;-65
2022/07/23 07:52:10;;;;;;;4.50;1.63;;;;;;;;;;5092708;28;20028;-65
2022/07/23 07:54:36;;;;;;;7.50;1.55;;;;;;;;;;5093242;28;20028;-65
2022/07/23 07:57:02;;;;;;;4.28;1.40;;;;;;;;;;5093320;28;20103;-65
2022/07/23 07:59:28;;;;;;;4.25;1.60;;;;;;;;;;5074966;28;20166;-65
2022/07/23 08:01:54;;;;;;;3.33;1.40;;;;;;;;;;5093231;28;20059;-65
2022/07/23 08:04:20;;;;;;;5.55;1.70;;;;;;;;;;5092965;28;20031;-65
2022/07/23 08:06:45;;;;;;;5.53;1.92;;;;;;;;;;5092715;28;20444;-65
2022/07/23 08:09:11;;;;;;;8.85;1.90;;;;;;;;;;5093013;28;20113;-65
2022/07/23 08:11:36;;;;;;;3.70;1.25;;;;;;;;;;5093056;28;20081;-64
2022/07/23 08:14:02;;;;;;;6.93;1.42;;;;;;;;;;5093015;28;20469;-64
2022/07/23 08:16:28;;;;;;;4.63;1.52;;;;;;;;;;5092994;28;20107;-64
2022/07/23 08:18:53;;;;;;;7.40;1.80;;;;;;;;;;5092544;28;20035;-64
2022/07/23 08:21:19;;;;;;;7.90;2.08;;;;;;;;;;5094667;28;20046;-64
2022/07/23 08:23:44;;;;;;;4.85;1.70;;;;;;;;;;5113190;28;20074;-63
2022/07/23 08:26:10;;;;;;;4.35;1.50;;;;;;;;;;5112877;28;20047;-65
2022/07/23 08:28:36;;;;;;;4.80;1.65;;;;;;;;;;5113070;28;20051;-65
2022/07/23 08:31:02;;;;;;;5.25;1.63;;;;;;;;;;5111874;28;20076;-65
2022/07/23 08:33:28;;;;;;;5.80;1.60;;;;;;;;;;5113029;28;20023;-65
2022/07/23 08:35:53;;;;;;;4.95;1.73;;;;;;;;;;5112911;28;20035;-65
2022/07/23 08:38:21;;;;;;;3.50;1.60;;;;;;;;;;5113123;28;20050;-64
2022/07/23 08:40:50;;;;;;;2.78;1.50;;;;;;;;;;5112940;28;20020;-65
2022/07/23 08:43:24;;;;;;;5.25;1.75;;;;;;;;;;5112979;28;20032;-65
2022/07/23 08:45:52;;;;;;;6.68;1.80;;;;;;;;;;5112757;28;20028;-64
2022/07/23 08:48:20;;;;;;;4.75;1.40;;;;;;;;;;5113199;28;20077;-65
2022/07/23 08:50:48;;;;;;;9.52;1.60;;;;;;;;;;5112956;28;20548;-65
2022/07/23 08:53:15;;;;;;;6.72;1.92;;;;;;;;;;5112959;28;20460;-64
2022/07/23 08:55:44;;;;;;;7.15;1.50;;;;;;;;;;5112846;28;20035;-65
2022/07/23 08:58:10;;;;;;;5.07;1.77;;;;;;;;;;5112795;28;20067;-64
2022/07/23 09:00:35;;;;;;;3.00;1.30;;;;;;;;;;5112630;28;20437;-65
2022/07/23 09:03:01;;;;;;;4.13;1.67;;;;;;;;;;5106941;28;20047;-65
2022/07/23 09:05:27;;;;;;;9.40;1.80;;;;;;;;;;5096360;28;20059;-65
2022/07/23 09:08:13;;;;;;;5.07;1.80;;;;;;;;;;5096252;28;20375;-64
2022/07/23 09:10:55;;;;;;;5.47;1.58;;;;;;;;;;5096218;28;20028;-65
2022/07/23 09:13:38;;;;;;;4.10;1.70;;;;;;;;;;5096380;28;20020;-65
2022/07/23 09:16:08;;;;;;;7.50;1.85;;;;;;;;;;5093762;28;20035;-65
2022/07/23 09:18:39;;;;;;;3.55;1.70;;;;;;;;;;5087103;28;20047;-65
2022/07/23 09:21:14;;;;;;;5.38;1.40;;;;;;;;;;5095900;28;20028;-65
2022/07/23 09:23:42;;;;;;;9.45;1.90;;;;;;;;;;5096076;28;20046;-65
2022/07/23 09:26:40;;;;;;;4.53;1.65;;;;;;;;;;5095334;28;20044;-65
2022/07/23 09:29:25;;;;;;;3.55;1.45;;;;;;;;;;5013947;28;20070;-65
2022/07/23 09:32:13;;;;;;;4.07;1.60;;;;;;;;;;5013965;28;20121;-66
2022/07/23 09:34:39;;;;;;;6.57;1.48;;;;;;;;;;5018582;28;20040;-65
2022/07/23 09:37:12;;;;;;;8.13;1.60;;;;;;;;;;5033389;28;20025;-65
2022/07/23 09:39:37;;;;;;;5.47;1.73;;;;;;;;;;5033315;28;20065;-65
2022/07/23 09:42:17;;;;;;;4.93;1.90;;;;;;;;;;5033523;28;20147;-65
2022/07/23 09:44:51;;;;;;;4.00;1.50;;;;;;;;;;5033154;28;20462;-65
2022/07/23 09:47:17;;;;;;;5.20;1.73;;;;;;;;;;5032983;28;20037;-65
2022/07/23 09:49:58;;;;;;;5.70;1.50;;;;;;;;;;5033243;28;20037;-65
2022/07/23 09:52:34;;;;;;;4.53;1.75;;;;;;;;;;5033222;28;20530;-65
2022/07/23 09:55:03;;;;;;;6.63;1.58;;;;;;;;;;5033233;28;20095;-65
2022/07/23 09:57:29;;;;;;;3.10;1.65;;;;;;;;;;5033082;28;20111;-65
2022/07/23 10:00:00;;;;;;;3.75;1.63;;;;;;;;;;5032941;28;20594;-65
2022/07/23 10:02:27;;;;;;;3.50;1.38;;;;;;;;;;5033336;28;20060;-65
2022/07/23 10:04:54;;;;;;;4.25;1.50;;;;;;;;;;5067279;28;20140;-64
2022/07/23 10:07:23;;;;;;;7.95;1.73;;;;;;;;;;5095101;28;20108;-65
2022/07/23 10:09:52;;;;;;;6.03;1.70;;;;;;;;;;5112202;28;20555;-65
2022/07/23 10:15:05;;;;;;;2.45;1.30;;;;;;;;;;5102617;28;20034;-65
2022/07/23 10:17:31;;;;;;;4.57;1.40;;;;;;;;;;5115129;28;20030;-65
2022/07/23 10:19:56;;;;;;;4.32;1.40;;;;;;;;;;5104818;28;20024;-65
2022/07/23 10:22:37;;;;;;;5.20;1.33;;;;;;;;;;5087003;28;20043;-65
2022/07/23 10:25:09;;;;;;;3.15;1.20;;;;;;;;;;5086003;28;20489;-65
2022/07/23 10:27:43;;;;;;;4.40;1.33;;;;;;;;;;5074189;28;20431;-64
2022/07/23 10:30:35;;;;;;;8.32;1.48;;;;;;;;;;5074364;28;20024;-65
2022/07/23 10:33:09;;;;;;;4.28;1.30;;;;;;;;;;5084774;28;20035;-64
2022/07/23 10:35:49;;;;;;;3.80;1.40;;;;;;;;;;5094611;28;20064;-64
2022/07/23 10:38:17;;;;;;;;;;;;;;;;;;5094848;28;20016;-65
2022/07/23 10:41:05;;;;;;;3.45;1.10;;;;;;;;;;5094423;28;19916;-64
2022/07/23 10:43:31;;;;;;;4.13;1.30;;;;;;;;;;5094200;28;20032;-64
2022/07/23 10:49:28;;;;;;;5.35;1.50;;;;;;;;;;5094594;28;20039;-64
2022/07/23 10:52:17;;;;;;;2.60;1.27;;;;;;;;;;5094324;28;20024;-65
2022/07/23 10:54:45;;;;;;;4.75;1.40;;;;;;;;;;5093641;28;20031;-64
2022/07/23 10:57:12;;;;;;;3.00;1.30;;;;;;;;;;5081601;28;20040;-65
2022/07/23 11:00:12;;;;;;;3.88;1.10;;;;;;;;;;5082920;28;20455;-65
2022/07/23 11:02:41;;;;;;;8.30;1.25;;;;;;;;;;5073870;28;20034;-65
2022/07/23 11:05:13;;;;;;;4.90;1.52;;;;;;;;;;5072056;28;20025;-65
2022/07/23 11:08:04;;;;;;;3.22;1.20;;;;;;;;;;5073651;28;20378;-65
2022/07/23 11:10:44;;;;;;;2.45;1.13;;;;;;;;;;5065291;28;20477;-65
2022/07/23 11:13:21;;;;;;;2.42;1.10;;;;;;;;;;5073476;28;20032;-65
2022/07/23 11:16:05;;;;;;;2.75;1.20;;;;;;;;;;5073682;28;20032;-66
2022/07/23 11:18:40;;;;;;;5.85;1.40;;;;;;;;;;5073559;28;20078;-65
2022/07/23 11:21:21;;;;;;;3.33;1.33;;;;;;;;;;5093233;28;20085;-65
2022/07/23 11:24:08;;;;;;;3.67;1.20;;;;;;;;;;5093711;28;20396;-65
2022/07/23 11:26:36;;;;;;;3.47;1.40;;;;;;;;;;5092115;28;20486;-65
2022/07/23 11:31:56;;;;;;;2.10;1.20;;;;;;;;;;5093489;28;20032;-66
2022/07/23 11:34:42;;;;;;;2.40;1.30;;;;;;;;;;5093578;28;20052;-66
2022/07/23 11:37:13;;;;;;;2.92;1.30;;;;;;;;;;5093451;28;20054;-63
2022/07/23 11:39:39;;;;;;;2.28;1.30;;;;;;;;;;5093334;28;20051;-65
2022/07/23 11:42:06;;;;;;;4.13;1.40;;;;;;;;;;5093170;28;20052;-65
2022/07/23 11:44:35;;;;;;;2.78;1.30;;;;;;;;;;5093359;28;20103;-64
2022/07/23 11:47:06;;;;;;;3.03;1.40;;;;;;;;;;5093427;28;20486;-65
2022/07/23 11:49:31;;;;;;;3.78;1.17;;;;;;;;;;5092969;28;20110;-64
2022/07/23 11:52:10;;;;;;;3.33;1.20;;;;;;;;;;5093285;28;20388;-64
2022/07/23 11:54:49;;;;;;;3.97;1.23;;;;;;;;;;5092990;28;20031;-64
2022/07/23 11:57:15;;;;;;;1.77;1.00;;;;;;;;;;5092060;28;20028;-65
2022/07/23 11:59:43;;;;;;;2.22;1.20;;;;;;;;;;5087893;28;20028;-64
2022/07/23 12:02:09;;;;;;;1.88;1.00;;;;;;;;;;5089592;28;20023;-65
2022/07/23 12:04:46;;;;;;;1.90;1.00;;;;;;;;;;5088899;28;20115;-65
2022/07/23 12:07:39;;;;;;;8.63;1.17;;;;;;;;;;5088948;28;20055;-65
2022/07/23 12:10:18;;;;;;;2.35;0.90;;;;;;;;;;5089128;28;20420;-66
2022/07/23 12:12:57;;;;;;;5.13;1.17;;;;;;;;;;5088912;28;20035;-66
2022/07/23 12:15:26;;;;;;;2.72;1.20;;;;;;;;;;5088868;28;20265;-63
2022/07/23 12:17:53;;;;;;;2.60;1.10;;;;;;;;;;5088703;28;20036;-64
2022/07/23 12:20:25;;;;;;;2.50;1.20;;;;;;;;;;5087658;28;20460;-63
2022/07/23 12:22:55;;;;;;;2.03;1.00;;;;;;;;;;5088549;28;20032;-64
2022/07/23 12:25:23;;;;;;;2.58;0.88;;;;;;;;;;5088361;28;20040;-67
2022/07/23 12:28:17;;;;;;;4.95;1.40;;;;;;;;;;5088711;28;20034;-63
2022/07/23 12:30:44;;;;;;;4.50;1.27;;;;;;;;;;5088691;28;20056;-64
2022/07/23 12:33:13;;;;;;;1.80;0.95;;;;;;;;;;5088728;28;20032;-64
2022/07/23 12:35:41;;;;;;;5.45;1.30;;;;;;;;;;5088533;28;20024;-64
2022/07/23 12:38:19;;;;;;;3.45;1.35;;;;;;;;;;5087157;28;20021;-64
2022/07/23 12:40:59;;;;;;;3.47;1.15;;;;;;;;;;5088525;28;20052;-64
2022/07/23 12:43:35;;;;;;;3.60;1.20;;;;;;;;;;5088312;28;20035;-65
2022/07/23 12:46:05;;;;;;;3.33;1.20;;;;;;;;;;5088490;28;20035;-64
2022/07/23 12:48:36;;;;;;;3.55;1.35;;;;;;;;;;5088447;28;20025;-64
2022/07/23 12:51:14;;;;;;;1.63;0.95;;;;;;;;;;5088429;28;20051;-64
2022/07/23 12:53:50;;;;;;;2.67;1.10;;;;;;;;;;5088216;28;20073;-64
2022/07/23 12:56:29;;;;;;;3.33;1.40;;;;;;;;;;5088830;28;20063;-64
2022/07/23 12:59:05;;;;;;;2.40;1.17;;;;;;;;;;5092477;28;20107;-64
2022/07/23 13:01:40;;;;;;;2.38;1.20;;;;;;;;;;5092282;28;20031;-64
2022/07/23 13:04:12;;;;;;;3.33;1.10;;;;;;;;;;5092465;28;20024;-64
2022/07/23 13:06:43;;;;;;;2.55;1.23;;;;;;;;;;5092037;28;20024;-64
2022/07/23 13:09:14;;;;;;;2.42;1.20;;;;;;;;;;5092181;28;20031;-64
2022/07/23 13:11:41;;;;;;;1.67;0.90;;;;;;;;;;5092321;28;20062;-64
2022/07/23 13:14:06;;;;;;;2.38;1.10;;;;;;;;;;5092267;28;20028;-65
2022/07/23 13:16:33;;;;;;;2.45;1.10;;;;;;;;;;5092700;28;20023;-65
2022/07/23 13:19:00;;;;;;;2.30;1.10;;;;;;;;;;5092557;28;20032;-65
2022/07/23 13:21:27;;;;;;;3.92;1.23;;;;;;;;;;5107243;28;20086;-65
2022/07/23 13:23:53;;;;;;;1.92;1.00;;;;;;;;;;5100450;28;20068;-65
2022/07/23 13:26:19;;;;;;;3.78;1.25;;;;;;;;;;5099632;28;20519;-65
2022/07/23 13:28:45;;;;;;;2.67;0.90;;;;;;;;;;5107764;28;20123;-65
2022/07/23 13:31:10;;;;;;;2.15;1.10;;;;;;;;;;5112425;28;20020;-65
2022/07/23 13:33:36;;;;;;;4.25;1.10;;;;;;;;;;5112341;28;20035;-64
2022/07/23 13:36:03;;;;;;;2.42;1.00;;;;;;;;;;5112192;28;20031;-65
2022/07/23 13:38:28;;;;;;;4.30;1.00;;;;;;;;;;5112276;28;20508;-65
2022/07/23 13:40:54;;;;;;;2.05;1.00;;;;;;;;;;5112288;28;20105;-64
2022/07/23 13:43:22;;;;;;;2.30;1.00;;;;;;;;;;5112395;28;20024;-65
2022/07/23 13:45:49;;;;;;;4.78;1.00;;;;;;;;;;5112235;28;20165;-65
2022/07/23 13:48:15;;;;;;;2.88;0.98;;;;;;;;;;5112418;28;20030;-65
2022/07/23 13:50:41;;;;;;;2.17;1.10;;;;;;;;;;5114260;28;20434;-64
2022/07/23 13:53:18;;;;;;;2.92;1.00;;;;;;;;;;5115787;27;20027;-64
2022/07/23 13:55:44;;;;;;;4.82;0.90;;;;;;;;;;5115763;28;20023;-64
2022/07/23 13:58:11;;;;;;;3.08;0.80;;;;;;;;;;5115918;28;20028;-65
2022/07/23 14:00:43;;;;;;;2.85;1.00;;;;;;;;;;5115665;28;20035;-64
2022/07/23 14:03:09;;;;;;;1.92;0.80;;;;;;;;;;5115818;28;20024;-64
2022/07/23 14:05:35;;;;;;;0.98;0.70;;;;;;;;;;5115332;28;20028;-64
2022/07/23 14:08:01;;;;;;;2.95;0.75;;;;;;;;;;5114327;28;20111;-64
2022/07/23 14:10:27;;;;;;;1.65;0.63;;;;;;;;;;5115635;28;20016;-64
2022/07/23 14:12:55;;;;;;;7.60;0.93;;;;;;;;;;5115587;28;20551;-65
2022/07/23 14:15:22;;;;;;;2.90;0.80;;;;;;;;;;5115508;28;20102;-65
2022/07/23 14:17:47;;;;;;;4.70;1.13;;;;;;;;;;5115288;27;20032;-65
2022/07/23 14:20:14;;;;;;;8.15;0.82;;;;;;;;;;5102409;28;20488;-65
2022/07/23 14:22:39;;;;;;;3.10;1.00;;;;;;;;;;5094909;28;20032;-65
2022/07/23 14:25:07;;;;;;;4.45;1.00;;;;;;;;;;5094736;28;20051;-65
2022/07/23 14:27:32;;;;;;;1.70;0.80;;;;;;;;;;5094800;28;20461;-65
2022/07/23 14:29:58;;;;;;;2.55;0.90;;;;;;;;;;5094670;28;20031;-65
2022/07/23 14:32:25;;;;;;;3.53;0.85;;;;;;;;;;5094945;28;20083;-65
2022/07/23 14:34:51;;;;;;;1.50;0.75;;;;;;;;;;5094687;28;20111;-65
2022/07/23 14:37:19;;;;;;;2.25;0.80;;;;;;;;;;5094571;28;20028;-65
2022/07/23 14:39:45;;;;;;;1.60;0.77;;;;;;;;;;5094482;28;20032;-65
2022/07/23 14:42:11;;;;;;;2.50;1.00;;;;;;;;;;5094555;28;20103;-65
2022/07/23 14:44:37;;;;;;;1.73;0.80;;;;;;;;;;5094660;28;20107;-65
2022/07/23 14:47:04;;;;;;;1.55;0.80;;;;;;;;;;5094289;28;20024;-65
2022/07/23 14:49:33;;;;;;;5.85;1.08;;;;;;;;;;5094034;28;20020;-65
2022/07/23 14:51:59;;;;;;;3.40;1.25;;;;;;;;;;5094333;28;20469;-65
2022/07/23 14:54:26;;;;;;;3.38;0.90;;;;;;;;;;5094340;28;20110;-65
2022/07/23 14:56:53;;;;;;;2.83;1.00;;;;;;;;;;5094347;28;20032;-65